Time;durP1;ratioP1;P1;durP2;ratioP2;P2;SDS_P1;SDS_P2;PMS_P1;PMS_P2;Temp;Humidity;BMP_temperature;BMP_pressure;BME280_temperature;BME280_humidity;BME280_pressure;Samples;Min_cycle;Max_cycle;Signal;HPM_P1;HPM_P2
2023/07/28 00:02:03;;;;;;;;;;;18.10;99.90;;;;;;5072380;28;20296;-63
2023/07/28 00:04:30;;;;;;;;;;;18.10;99.90;;;;;;5054449;28;19943;-63
2023/07/28 00:06:57;;;;;;;;;;;18.10;99.90;;;;;;5054754;28;19920;-63
2023/07/28 00:09:25;;;;;;;;;;;18.20;99.90;;;;;;5053786;28;19935;-63
2023/07/28 00:11:51;;;;;;;;;;;18.20;99.90;;;;;;5054616;28;19928;-63
2023/07/28 00:14:18;;;;;;;;;;;18.20;99.90;;;;;;5054602;28;19924;-63
2023/07/28 00:16:45;;;;;;;;;;;18.20;99.90;;;;;;5054379;28;19925;-63
2023/07/28 00:19:12;;;;;;;;;;;18.20;99.90;;;;;;5054714;28;19928;-63
2023/07/28 00:21:38;;;;;;;;;;;18.10;99.90;;;;;;5054717;28;19999;-63
2023/07/28 00:24:05;;;;;;;;;;;18.10;99.90;;;;;;5069532;28;20018;-63
2023/07/28 00:26:33;;;;;;;;;;;18.20;99.90;;;;;;5068761;28;19920;-63
2023/07/28 00:29:00;;;;;;;;;;;18.10;99.90;;;;;;5050245;28;19966;-62
2023/07/28 00:31:27;;;;;;;;;;;18.10;99.90;;;;;;5054423;28;20258;-63
2023/07/28 00:33:53;;;;;;;;;;;18.10;99.90;;;;;;5072430;28;19924;-62
2023/07/28 00:36:20;;;;;;;;;;;18.10;99.90;;;;;;5053853;28;20384;-63
2023/07/28 00:38:47;;;;;;;;;;;18.10;99.90;;;;;;5054515;28;19927;-63
2023/07/28 00:41:14;;;;;;;;;;;18.10;99.90;;;;;;5072217;28;19927;-63
2023/07/28 00:43:42;;;;;;;;;;;18.10;99.90;;;;;;5071817;28;20291;-63
2023/07/28 00:46:09;;;;;;;;;;;18.10;99.90;;;;;;5072327;28;19936;-62
2023/07/28 00:48:35;;;;;;;;;;;18.10;99.90;;;;;;5072431;28;19932;-63
2023/07/28 00:51:02;;;;;;;;;;;18.10;99.90;;;;;;5053846;28;19928;-63
2023/07/28 00:53:29;;;;;;;;;;;18.10;99.90;;;;;;5056178;28;19920;-63
2023/07/28 00:55:57;;;;;;;;;;;18.10;99.90;;;;;;5058105;28;20296;-64
2023/07/28 00:58:23;;;;;;;;;;;18.10;99.90;;;;;;5075857;28;19968;-63
2023/07/28 01:00:51;;;;;;;;;;;18.10;99.90;;;;;;5057862;28;19928;-64
2023/07/28 01:03:19;;;;;;;;;;;18.10;99.90;;;;;;5057841;28;19921;-62
2023/07/28 01:05:51;;;;;;;;;;;18.10;99.90;;;;;;5075029;28;20368;-62
2023/07/28 01:08:22;;;;;;;;;;;18.10;99.90;;;;;;5075824;28;20302;-63
2023/07/28 01:10:49;;;;;;;;;;;18.10;99.90;;;;;;5058087;28;19982;-63
2023/07/28 01:13:16;;;;;;;;;;;18.10;99.90;;;;;;5075380;28;19974;-63
2023/07/28 01:15:42;;;;;;;;;;;18.10;99.90;;;;;;5057916;28;19920;-63
2023/07/28 01:18:10;;;;;;;;;;;18.10;99.90;;;;;;5056995;28;19920;-63
2023/07/28 01:20:38;;;;;;;;;;;18.10;99.90;;;;;;5057684;28;19928;-63
2023/07/28 01:23:09;;;;;;;;;;;18.10;99.90;;;;;;5075729;28;19978;-63
2023/07/28 01:25:50;;;;;;;;;;;18.10;99.90;;;;;;5074911;28;19921;-63
2023/07/28 01:28:18;;;;;;;;;;;18.10;99.90;;;;;;5074124;28;20342;-63
2023/07/28 01:30:45;;;;;;;;;;;18.10;99.90;;;;;;5075373;28;19931;-64
2023/07/28 01:33:12;;;;;;;;;;;18.10;99.90;;;;;;5057302;28;19920;-64
2023/07/28 01:35:39;;;;;;;;;;;18.10;99.90;;;;;;5075185;28;19980;-63
2023/07/28 01:38:06;;;;;;;;;;;18.10;99.90;;;;;;5075718;28;19925;-64
2023/07/28 01:40:32;;;;;;;;;;;18.10;99.90;;;;;;5074697;28;19920;-63
2023/07/28 01:42:59;;;;;;;;;;;18.10;99.90;;;;;;5057054;28;19924;-63
2023/07/28 01:45:27;;;;;;;;;;;18.10;99.90;;;;;;5075177;28;19935;-63
2023/07/28 01:47:54;;;;;;;;;;;18.10;99.90;;;;;;5056702;28;19928;-63
2023/07/28 01:50:21;;;;;;;;;;;18.10;99.90;;;;;;5056955;28;19920;-63
2023/07/28 01:52:47;;;;;;;;;;;18.10;99.90;;;;;;5074877;28;20399;-62
2023/07/28 01:55:14;;;;;;;;;;;18.10;99.90;;;;;;5056561;28;19920;-63
2023/07/28 01:57:41;;;;;;;;;;;18.10;99.90;;;;;;5057036;28;20361;-64
2023/07/28 02:00:08;;;;;;;;;;;18.10;99.90;;;;;;5057010;28;19928;-65
2023/07/28 02:02:36;;;;;;;;;;;18.10;99.90;;;;;;5074168;28;20430;-64
2023/07/28 02:05:03;;;;;;;;;;;18.10;99.90;;;;;;5055861;28;19921;-64
2023/07/28 02:07:30;;;;;;;;;;;18.10;99.90;;;;;;5056086;28;20364;-64
2023/07/28 02:09:57;;;;;;;;;;;18.10;99.90;;;;;;5074825;28;19927;-64
2023/07/28 02:12:24;;;;;;;;;;;18.10;99.90;;;;;;5054729;28;19924;-63
2023/07/28 02:14:51;;;;;;;;;;;18.10;99.90;;;;;;5074154;28;19920;-62
2023/07/28 02:17:18;;;;;;;;;;;18.10;99.90;;;;;;5056695;28;19921;-63
2023/07/28 02:19:47;;;;;;;;;;;18.10;99.90;;;;;;5074763;28;19939;-63
2023/07/28 02:22:13;;;;;;;;;;;18.10;99.90;;;;;;5072291;28;19920;-62
2023/07/28 02:24:40;;;;;;;;;;;18.10;99.90;;;;;;5056074;28;19927;-62
2023/07/28 02:27:07;;;;;;;;;;;18.10;99.90;;;;;;5074783;28;20326;-63
2023/07/28 02:29:33;;;;;;;;;;;18.10;99.90;;;;;;5074001;28;19966;-63
2023/07/28 02:32:00;;;;;;;;;;;18.10;99.90;;;;;;5074119;28;19974;-63
2023/07/28 02:34:27;;;;;;;;;;;18.10;99.90;;;;;;5074206;28;19924;-63
2023/07/28 02:36:55;;;;;;;;;;;18.10;99.90;;;;;;5055794;28;20292;-63
2023/07/28 02:39:22;;;;;;;;;;;18.10;99.90;;;;;;5074136;28;20399;-63
2023/07/28 02:41:48;;;;;;;;;;;18.10;99.90;;;;;;5074012;28;19927;-63
2023/07/28 02:44:15;;;;;;;;;;;18.10;99.90;;;;;;5055483;28;19932;-63
2023/07/28 02:46:42;;;;;;;;;;;18.10;99.90;;;;;;5073838;28;20429;-63
2023/07/28 02:49:08;;;;;;;;;;;18.10;99.90;;;;;;5074100;28;19920;-63
2023/07/28 02:51:35;;;;;;;;;;;18.10;99.90;;;;;;5072630;28;19921;-63
2023/07/28 02:54:04;;;;;;;;;;;18.10;99.90;;;;;;5055951;28;19920;-63
2023/07/28 02:56:34;;;;;;;;;;;18.10;99.90;;;;;;5053409;28;19970;-63
2023/07/28 02:59:01;;;;;;;;;;;18.10;99.90;;;;;;5055899;28;20392;-63
2023/07/28 03:01:28;;;;;;;;;;;18.10;99.90;;;;;;5073888;28;19924;-63
2023/07/28 03:03:54;;;;;;;;;;;18.10;99.90;;;;;;5055016;28;19928;-63
2023/07/28 03:06:21;;;;;;;;;;;18.10;99.90;;;;;;5055392;28;20379;-63
2023/07/28 03:08:48;;;;;;;;;;;18.10;99.90;;;;;;5055335;28;19928;-63
2023/07/28 03:11:16;;;;;;;;;;;18.10;99.90;;;;;;5072954;28;19920;-63
2023/07/28 03:13:43;;;;;;;;;;;18.10;99.90;;;;;;5055453;28;19991;-63
2023/07/28 03:16:09;;;;;;;;;;;18.10;99.90;;;;;;5054689;28;19920;-63
2023/07/28 03:18:36;;;;;;;;;;;18.00;99.90;;;;;;5072584;28;19920;-63
2023/07/28 03:21:03;;;;;;;;;;;18.00;99.90;;;;;;5055414;28;20003;-63
2023/07/28 03:23:30;;;;;;;;;;;18.00;99.90;;;;;;5073102;28;19921;-63
2023/07/28 03:25:56;;;;;;;;;;;18.00;99.90;;;;;;5054515;28;19921;-63
2023/07/28 03:28:24;;;;;;;;;;;18.00;99.90;;;;;;5073476;28;20291;-63
2023/07/28 03:30:51;;;;;;;;;;;18.00;99.90;;;;;;5055110;28;19921;-63
2023/07/28 03:33:18;;;;;;;;;;;18.00;99.90;;;;;;5072335;28;19970;-62
2023/07/28 03:35:45;;;;;;;;;;;18.00;99.90;;;;;;5073071;28;20368;-63
2023/07/28 03:38:12;;;;;;;;;;;18.00;99.90;;;;;;5053112;28;19920;-63
2023/07/28 03:40:38;;;;;;;;;;;18.00;99.90;;;;;;5054170;28;19970;-62
2023/07/28 03:43:05;;;;;;;;;;;18.00;99.90;;;;;;5055037;28;19974;-63
2023/07/28 03:45:33;;;;;;;;;;;18.00;99.90;;;;;;5072190;28;20356;-63
2023/07/28 03:48:00;;;;;;;;;;;18.00;99.90;;;;;;5060149;28;20318;-63
2023/07/28 03:50:27;;;;;;;;;;;18.00;99.90;;;;;;5069082;28;20030;-63
2023/07/28 03:52:54;;;;;;;;;;;18.00;99.90;;;;;;5053279;28;19971;-63
2023/07/28 03:55:21;;;;;;;;;;;18.10;99.90;;;;;;5068703;28;19970;-63
2023/07/28 03:57:48;;;;;;;;;;;18.10;99.90;;;;;;5071425;28;19920;-63
2023/07/28 04:00:15;;;;;;;;;;;18.10;99.90;;;;;;5050535;28;20376;-62
2023/07/28 04:02:43;;;;;;;;;;;18.10;99.90;;;;;;5067716;28;19943;-62
2023/07/28 04:05:10;;;;;;;;;;;18.20;99.90;;;;;;5070001;28;20295;-63
2023/07/28 04:07:36;;;;;;;;;;;18.10;99.90;;;;;;5051803;28;20057;-62
2023/07/28 04:10:03;;;;;;;;;;;18.20;99.90;;;;;;5069721;28;19924;-63
2023/07/28 04:12:30;;;;;;;;;;;18.20;99.90;;;;;;5071458;28;19935;-64
2023/07/28 04:14:57;;;;;;;;;;;18.20;99.90;;;;;;5051853;28;19920;-64
2023/07/28 04:17:23;;;;;;;;;;;18.20;99.90;;;;;;5053383;28;20292;-63
2023/07/28 04:19:52;;;;;;;;;;;18.20;99.90;;;;;;5069381;28;19924;-63
2023/07/28 04:22:21;;;;;;;;;;;18.20;99.90;;;;;;5050472;28;20394;-63
2023/07/28 04:24:48;;;;;;;;;;;18.20;99.90;;;;;;5049548;28;20381;-62
2023/07/28 04:27:15;;;;;;;;;;;18.30;99.90;;;;;;5070357;28;19920;-64
2023/07/28 04:29:42;;;;;;;;;;;18.30;99.90;;;;;;5050101;28;20003;-62
2023/07/28 04:32:09;;;;;;;;;;;18.30;99.90;;;;;;5069957;28;20299;-63
2023/07/28 04:34:35;;;;;;;;;;;18.30;99.90;;;;;;5051852;28;19927;-64
2023/07/28 04:37:04;;;;;;;;;;;18.40;99.90;;;;;;5050433;28;20346;-64
2023/07/28 04:39:30;;;;;;;;;;;18.40;99.90;;;;;;5070550;28;19921;-62
2023/07/28 04:41:57;;;;;;;;;;;18.40;99.90;;;;;;5064338;28;20330;-63
2023/07/28 04:44:24;;;;;;;;;;;18.30;99.90;;;;;;5053420;28;20402;-62
2023/07/28 04:46:50;;;;;;;;;;;18.40;99.90;;;;;;5069064;28;19920;-63
2023/07/28 04:49:17;;;;;;;;;;;18.40;99.90;;;;;;5070072;28;19921;-63
2023/07/28 04:51:44;;;;;;;;;;;18.30;99.90;;;;;;5068552;28;19925;-63
2023/07/28 04:54:12;;;;;;;;;;;18.30;99.90;;;;;;5052398;28;19920;-63
2023/07/28 04:56:39;;;;;;;;;;;18.30;99.90;;;;;;5064862;28;19928;-63
2023/07/28 04:59:06;;;;;;;;;;;18.40;99.90;;;;;;5071121;28;19927;-62
2023/07/28 05:01:33;;;;;;;;;;;18.40;99.90;;;;;;5058142;28;19920;-63
2023/07/28 05:04:00;;;;;;;;;;;18.40;99.90;;;;;;5068711;28;19927;-63
2023/07/28 05:06:27;;;;;;;;;;;18.40;99.90;;;;;;5067007;28;19921;-63
2023/07/28 05:08:53;;;;;;;;;;;18.40;99.90;;;;;;5051076;28;19974;-62
2023/07/28 05:11:22;;;;;;;;;;;18.40;99.90;;;;;;5067893;28;19924;-62
2023/07/28 05:13:48;;;;;;;;;;;18.40;99.90;;;;;;5052691;28;19921;-62
2023/07/28 05:16:15;;;;;;;;;;;18.40;99.90;;;;;;5068929;28;19924;-63
2023/07/28 05:18:42;;;;;;;;;;;18.40;99.90;;;;;;5051741;28;19920;-64
2023/07/28 05:21:09;;;;;;;;;;;18.40;99.90;;;;;;5070340;28;20011;-63
2023/07/28 05:23:36;;;;;;;;;;;18.40;99.90;;;;;;5051619;28;20388;-62
2023/07/28 05:26:02;;;;;;;;;;;18.40;99.90;;;;;;5070414;28;19924;-63
2023/07/28 05:28:32;;;;;;;;;;;18.40;99.90;;;;;;5069098;28;19928;-64
2023/07/28 05:31:04;;;;;;;;;;;18.50;99.90;;;;;;5068984;28;19928;-62
2023/07/28 05:33:30;;;;;;;;;;;18.50;99.90;;;;;;5068180;28;20452;-62
2023/07/28 05:36:00;;;;;;;;;;;18.60;99.90;;;;;;5052023;28;19928;-62
2023/07/28 05:38:27;;;;;;;;;;;18.60;99.90;;;;;;5051889;28;19924;-63
2023/07/28 05:40:57;;;;;;;;;;;18.70;99.90;;;;;;5072651;28;20288;-63
2023/07/28 05:43:23;;;;;;;;;;;18.70;99.90;;;;;;5073008;28;19931;-64
2023/07/28 05:45:51;;;;;;;;;;;18.80;99.90;;;;;;5073458;28;20477;-62
2023/07/28 05:48:18;;;;;;;;;;;18.80;99.90;;;;;;5054666;28;19920;-64
2023/07/28 05:50:45;;;;;;;;;;;18.90;99.90;;;;;;5056053;28;19982;-63
2023/07/28 05:53:13;;;;;;;;;;;18.80;99.90;;;;;;5071983;28;19921;-63
2023/07/28 05:55:40;;;;;;;;;;;18.90;99.90;;;;;;5055412;28;19928;-62
2023/07/28 05:58:06;;;;;;;;;;;18.90;99.90;;;;;;5071895;28;19920;-62
2023/07/28 06:00:33;;;;;;;;;;;18.80;99.90;;;;;;5073631;28;20338;-62
2023/07/28 06:03:01;;;;;;;;;;;18.80;99.90;;;;;;5072507;28;20395;-62
2023/07/28 06:05:28;;;;;;;;;;;18.80;99.90;;;;;;5053635;28;20014;-63
2023/07/28 06:07:55;;;;;;;;;;;18.80;99.90;;;;;;5072275;28;19920;-63
2023/07/28 06:10:21;;;;;;;;;;;18.80;99.90;;;;;;5053261;28;19920;-63
2023/07/28 06:12:48;;;;;;;;;;;18.80;99.90;;;;;;5071056;28;20380;-62
2023/07/28 06:15:15;;;;;;;;;;;18.90;99.90;;;;;;5053562;28;19921;-62
2023/07/28 06:17:42;;;;;;;;;;;18.90;99.90;;;;;;5073240;28;19974;-62
2023/07/28 06:20:11;;;;;;;;;;;18.90;99.90;;;;;;5071859;28;20019;-62
2023/07/28 06:22:37;;;;;;;;;;;18.90;99.90;;;;;;5054572;28;19935;-63
2023/07/28 06:25:04;;;;;;;;;;;19.00;99.90;;;;;;5054002;28;19920;-62
2023/07/28 06:27:31;;;;;;;;;;;19.00;99.90;;;;;;5054836;28;19927;-63
2023/07/28 06:29:58;;;;;;;;;;;19.00;99.90;;;;;;5054166;28;19935;-64
2023/07/28 06:32:24;;;;;;;;;;;19.00;99.90;;;;;;5073282;28;19970;-62
2023/07/28 06:34:51;;;;;;;;;;;19.10;99.90;;;;;;5070926;28;20437;-62
2023/07/28 06:37:19;;;;;;;;;;;19.20;99.90;;;;;;5054385;28;20020;-63
2023/07/28 06:39:46;;;;;;;;;;;19.40;99.90;;;;;;5071454;28;19921;-62
2023/07/28 06:42:13;;;;;;;;;;;19.50;99.90;;;;;;5072105;28;19920;-62
2023/07/28 06:44:39;;;;;;;;;;;19.70;99.90;;;;;;5054526;28;20244;-62
2023/07/28 06:47:06;;;;;;;;;;;19.70;99.90;;;;;;5054032;28;20429;-62
2023/07/28 06:49:33;;;;;;;;;;;19.90;99.90;;;;;;5051970;28;19924;-62
2023/07/28 06:51:59;;;;;;;;;;;19.90;99.90;;;;;;5054197;28;20475;-63
2023/07/28 06:54:27;;;;;;;;;;;19.80;99.90;;;;;;5052165;28;20021;-62
2023/07/28 06:56:54;;;;;;;;;;;19.70;99.90;;;;;;5071099;28;20382;-63
2023/07/28 06:59:21;;;;;;;;;;;19.90;99.90;;;;;;5073061;28;19970;-63
2023/07/28 07:01:48;;;;;;;;;;;20.10;99.90;;;;;;5071320;28;20331;-65
2023/07/28 07:04:14;;;;;;;;;;;20.80;99.90;;;;;;5069867;28;19939;-63
2023/07/28 07:06:41;;;;;;;;;;;21.60;99.90;;;;;;5054082;28;19927;-64
2023/07/28 07:09:08;;;;;;;;;;;22.20;99.90;;;;;;5053425;28;19972;-63
2023/07/28 07:11:36;;;;;;;;;;;22.10;99.90;;;;;;5052550;28;19928;-64
2023/07/28 07:14:03;;;;;;;;;;;21.70;99.90;;;;;;5054922;28;19920;-63
2023/07/28 07:16:29;;;;;;;;;;;21.80;99.90;;;;;;5071485;28;19928;-63
2023/07/28 07:18:56;;;;;;;;;;;21.90;99.90;;;;;;5070556;28;19921;-63
2023/07/28 07:21:23;;;;;;;;;;;21.90;99.90;;;;;;5069941;28;19935;-63
2023/07/28 07:23:50;;;;;;;;;;;21.70;99.90;;;;;;5054127;28;19927;-63
2023/07/28 07:26:16;;;;;;;;;;;21.60;99.90;;;;;;5069428;28;19971;-63
2023/07/28 07:28:44;;;;;;;;;;;21.40;99.90;;;;;;5072214;28;19920;-63
2023/07/28 07:31:12;;;;;;;;;;;21.40;99.90;;;;;;5068587;28;19931;-63
2023/07/28 07:33:39;;;;;;;;;;;21.20;99.90;;;;;;5072434;28;19927;-63
2023/07/28 07:36:06;;;;;;;;;;;21.20;99.90;;;;;;5052078;28;19927;-63
2023/07/28 07:38:33;;;;;;;;;;;21.30;99.90;;;;;;5071994;28;20303;-63
2023/07/28 07:41:01;;;;;;;;;;;21.10;99.90;;;;;;5052939;28;19935;-63
2023/07/28 07:43:28;;;;;;;;;;;21.00;99.90;;;;;;5068006;28;20388;-63
2023/07/28 07:45:56;;;;;;;;;;;21.00;99.90;;;;;;5069265;28;19974;-63
2023/07/28 07:48:23;;;;;;;;;;;20.90;99.90;;;;;;5070359;28;19924;-63
2023/07/28 07:50:50;;;;;;;;;;;20.80;99.90;;;;;;5071745;28;19928;-63
2023/07/28 07:53:18;;;;;;;;;;;20.80;99.90;;;;;;5051764;28;19920;-64
2023/07/28 07:55:45;;;;;;;;;;;20.80;99.90;;;;;;5053645;28;19970;-63
2023/07/28 07:58:11;;;;;;;;;;;20.90;99.90;;;;;;5069438;28;20281;-63
2023/07/28 08:00:38;;;;;;;;;;;21.00;99.90;;;;;;5053692;28;20001;-62
2023/07/28 08:03:06;;;;;;;;;;;21.10;99.90;;;;;;5051559;28;19956;-63
2023/07/28 08:05:33;;;;;;;;;;;21.30;99.90;;;;;;5052019;28;19925;-64
2023/07/28 08:08:00;;;;;;;;;;;21.30;99.90;;;;;;5063296;28;19924;-63
2023/07/28 08:10:27;;;;;;;;;;;21.50;99.90;;;;;;5049367;28;19927;-64
2023/07/28 08:12:54;;;;;;;;;;;21.80;99.90;;;;;;5049201;28;19990;-63
2023/07/28 08:15:20;;;;;;;;;;;21.90;99.90;;;;;;5048059;28;19924;-63
2023/07/28 08:17:47;;;;;;;;;;;22.00;99.90;;;;;;5050786;28;19928;-63
2023/07/28 08:20:15;;;;;;;;;;;22.00;99.90;;;;;;5049130;28;20269;-63
2023/07/28 08:22:42;;;;;;;;;;;21.70;99.90;;;;;;5048081;28;19921;-64
2023/07/28 08:25:09;;;;;;;;;;;21.40;99.90;;;;;;5050653;28;19932;-64
2023/07/28 08:27:36;;;;;;;;;;;21.50;99.90;;;;;;5045376;28;19970;-62
2023/07/28 08:30:03;;;;;;;;;;;21.60;99.90;;;;;;5051066;28;19932;-63
2023/07/28 08:32:30;;;;;;;;;;;21.50;99.90;;;;;;5047043;28;19921;-63
2023/07/28 08:34:56;;;;;;;;;;;21.50;99.90;;;;;;5046999;28;19929;-63
2023/07/28 08:37:25;;;;;;;;;;;21.60;99.90;;;;;;5050498;28;19921;-63
2023/07/28 08:39:51;;;;;;;;;;;21.70;99.90;;;;;;5049079;28;19932;-63
2023/07/28 08:42:18;;;;;;;;;;;21.70;99.90;;;;;;5050037;28;19920;-63
2023/07/28 08:44:47;;;;;;;;;;;21.60;99.90;;;;;;5050446;28;19929;-63
2023/07/28 08:47:14;;;;;;;;;;;21.60;99.90;;;;;;5051148;28;20398;-63
2023/07/28 08:49:41;;;;;;;;;;;21.60;99.90;;;;;;5047410;28;19924;-63
2023/07/28 08:52:08;;;;;;;;;;;21.70;99.90;;;;;;5050935;28;19921;-63
2023/07/28 08:54:36;;;;;;;;;;;21.50;99.90;;;;;;5047088;28;19925;-63
2023/07/28 08:57:03;;;;;;;;;;;21.60;99.90;;;;;;5049639;28;20297;-63
2023/07/28 08:59:30;;;;;;;;;;;21.70;99.90;;;;;;5046016;28;20383;-63
2023/07/28 09:01:59;;;;;;;;;;;21.90;99.90;;;;;;5051209;28;20035;-63
2023/07/28 09:04:25;;;;;;;;;;;22.10;99.90;;;;;;5048107;28;19921;-63
2023/07/28 09:06:52;;;;;;;;;;;22.20;99.90;;;;;;5049790;28;19924;-63
2023/07/28 09:09:19;;;;;;;;;;;22.50;99.90;;;;;;5068588;28;19920;-63
2023/07/28 09:11:48;;;;;;;;;;;22.60;99.90;;;;;;5052283;28;19924;-63
2023/07/28 09:14:16;;;;;;;;;;;22.80;99.90;;;;;;5070708;28;20330;-63
2023/07/28 09:16:42;;;;;;;;;;;22.90;99.90;;;;;;5073598;28;19924;-63
2023/07/28 09:19:09;;;;;;;;;;;22.80;99.90;;;;;;5073888;28;19947;-63
2023/07/28 09:21:36;;;;;;;;;;;22.90;99.90;;;;;;5055743;28;20306;-63
2023/07/28 09:24:05;;;;;;;;;;;23.50;99.90;;;;;;5073843;28;19953;-63
2023/07/28 09:26:39;;;;;;;;;;;24.20;99.90;;;;;;5071998;28;19920;-63
2023/07/28 09:29:14;;;;;;;;;;;24.70;99.90;;;;;;5055162;28;19924;-63
2023/07/28 09:31:41;;;;;;;;;;;25.40;99.90;;;;;;5071496;28;20015;-62
2023/07/28 09:34:09;;;;;;;;;;;25.70;99.90;;;;;;5074352;28;19934;-64
2023/07/28 09:36:36;;;;;;;;;;;26.00;99.90;;;;;;5054462;28;19927;-63
2023/07/28 09:39:07;;;;;;;;;;;26.40;99.90;;;;;;5071111;28;19974;-63
2023/07/28 09:41:35;;;;;;;;;;;27.00;99.90;;;;;;5072702;28;20366;-63
2023/07/28 09:44:02;;;;;;;;;;;27.40;99.90;;;;;;5074019;28;19924;-63
2023/07/28 09:46:30;;;;;;;;;;;27.20;99.90;;;;;;5054076;28;19920;-63
2023/07/28 09:48:58;;;;;;;;;;;27.10;99.90;;;;;;5056014;28;19921;-63
2023/07/28 09:51:29;;;;;;;;;;;26.70;99.90;;;;;;5069787;28;19966;-63
2023/07/28 09:53:57;;;;;;;;;;;26.10;99.90;;;;;;5053446;28;20399;-63
2023/07/28 09:56:27;;;;;;;;;;;25.60;99.90;;;;;;5053944;28;20273;-63
2023/07/28 09:58:54;;;;;;;;;;;25.70;99.90;;;;;;5054046;28;19931;-63
2023/07/28 10:01:21;;;;;;;;;;;25.30;99.90;;;;;;5072047;28;19931;-63
2023/07/28 10:03:50;;;;;;;;;;;25.10;99.90;;;;;;5055018;28;20277;-64
2023/07/28 10:06:17;;;;;;;;;;;25.30;99.90;;;;;;5070558;28;19921;-63
2023/07/28 10:08:45;;;;;;;;;;;25.90;99.90;;;;;;5056360;28;20360;-63
2023/07/28 10:11:13;;;;;;;;;;;26.10;99.90;;;;;;5074674;28;19924;-63
2023/07/28 10:13:43;;;;;;;;;;;26.30;99.90;;;;;;5073890;28;19920;-63
2023/07/28 10:16:10;;;;;;;;;;;25.90;99.90;;;;;;5056275;28;19966;-62
2023/07/28 10:18:36;;;;;;;;;;;25.70;99.90;;;;;;5056075;28;20386;-63
2023/07/28 10:21:06;;;;;;;;;;;25.20;99.90;;;;;;5073888;28;19921;-64
2023/07/28 10:23:34;;;;;;;;;;;24.80;99.90;;;;;;5054326;28;19927;-64
2023/07/28 10:26:01;;;;;;;;;;;24.80;99.90;;;;;;5073073;28;20407;-63
2023/07/28 10:28:31;;;;;;;;;;;25.00;99.90;;;;;;5073395;28;20431;-63
2023/07/28 10:30:58;;;;;;;;;;;25.70;99.90;;;;;;5055255;28;20381;-64
2023/07/28 10:33:29;;;;;;;;;;;26.60;99.90;;;;;;5074319;28;19963;-63
2023/07/28 10:35:56;;;;;;;;;;;27.10;99.90;;;;;;5071482;28;19920;-64
2023/07/28 10:38:31;;;;;;;;;;;27.60;99.90;;;;;;5073829;28;19927;-64
2023/07/28 10:41:19;;;;;;;;;;;27.90;99.90;;;;;;5055759;28;19924;-64
2023/07/28 10:43:46;;;;;;;;;;;27.60;99.90;;;;;;5067615;28;20339;-64
2023/07/28 10:46:15;;;;;;;;;;;27.50;99.90;;;;;;5055947;28;19926;-64
2023/07/28 10:48:43;;;;;;;;;;;27.10;99.90;;;;;;5055205;28;19974;-64
2023/07/28 10:51:11;;;;;;;;;;;27.00;99.90;;;;;;5073765;28;19933;-64
2023/07/28 10:53:39;;;;;;;;;;;26.80;99.90;;;;;;5056116;28;19924;-63
2023/07/28 10:56:08;;;;;;;;;;;26.70;99.90;;;;;;5072434;28;19920;-64
2023/07/28 10:58:35;;;;;;;;;;;26.20;99.90;;;;;;5073654;28;20007;-64
2023/07/28 11:01:02;;;;;;;;;;;26.00;99.90;;;;;;5073102;28;19966;-63
2023/07/28 11:03:29;;;;;;;;;;;26.50;99.90;;;;;;5053441;28;19929;-64
2023/07/28 11:05:56;;;;;;;;;;;26.60;99.90;;;;;;5055177;28;19924;-63
2023/07/28 11:08:23;;;;;;;;;;;26.90;99.90;;;;;;5056853;28;20010;-64
2023/07/28 11:10:51;;;;;;;;;;;27.50;99.90;;;;;;5072142;28;19927;-63
2023/07/28 11:13:18;;;;;;;;;;;27.00;99.90;;;;;;5072789;28;19939;-63
2023/07/28 11:15:45;;;;;;;;;;;26.70;99.90;;;;;;5055514;28;19928;-64
2023/07/28 11:18:11;;;;;;;;;;;26.40;99.90;;;;;;5057007;28;20372;-64
2023/07/28 11:20:38;;;;;;;;;;;26.30;99.90;;;;;;5056486;28;19929;-64
2023/07/28 11:23:05;;;;;;;;;;;26.40;99.90;;;;;;5072142;28;20277;-63
2023/07/28 11:25:33;;;;;;;;;;;26.70;99.90;;;;;;5071027;28;20427;-63
2023/07/28 11:28:05;;;;;;;;;;;27.30;99.90;;;;;;5072965;28;19985;-65
2023/07/28 11:30:32;;;;;;;;;;;27.40;99.90;;;;;;5054679;28;20388;-64
2023/07/28 11:32:59;;;;;;;;;;;27.40;99.90;;;;;;5072965;28;19921;-64
2023/07/28 11:35:25;;;;;;;;;;;27.60;99.90;;;;;;5013041;28;19928;-63
2023/07/28 11:37:53;;;;;;;;;;;27.90;99.90;;;;;;5049019;28;20288;-64
2023/07/28 11:40:21;;;;;;;;;;;28.20;99.90;;;;;;5054853;28;19920;-64
2023/07/28 11:42:48;;;;;;;;;;;28.40;99.90;;;;;;5072765;28;19920;-64
2023/07/28 11:45:18;;;;;;;;;;;28.50;99.90;;;;;;5072105;28;19921;-64
2023/07/28 11:47:52;;;;;;;;;;;28.50;99.90;;;;;;5072741;28;19931;-64
2023/07/28 11:50:22;;;;;;;;;;;28.30;99.90;;;;;;5053323;28;20331;-63
2023/07/28 11:52:49;;;;;;;;;;;28.90;99.90;;;;;;5070064;28;19995;-63
2023/07/28 11:55:17;;;;;;;;;;;29.20;99.90;;;;;;5072764;28;19927;-63
2023/07/28 11:57:43;;;;;;;;;;;29.60;99.90;;;;;;5070555;28;19974;-64
2023/07/28 12:00:12;;;;;;;;;;;30.00;99.90;;;;;;5054013;28;19927;-64
2023/07/28 12:02:40;;;;;;;;;;;30.30;98.90;;;;;;5054622;28;19966;-64
2023/07/28 12:05:12;;;;;;;;;;;30.50;97.70;;;;;;5069902;28;19925;-63
2023/07/28 12:07:39;;;;;;;;;;;30.40;98.00;;;;;;5072143;28;19982;-64
2023/07/28 12:10:08;;;;;;;;;;;29.80;98.50;;;;;;5072692;28;19944;-64
2023/07/28 12:12:40;;;;;;;;;;;29.10;99.10;;;;;;5055256;28;20346;-64
2023/07/28 12:15:19;;;;;;;;;;;28.80;99.90;;;;;;5072179;28;20307;-64
2023/07/28 12:20:46;;;;;;;;;;;29.50;99.10;;;;;;5153592;27;19928;-64
2023/07/28 12:23:13;;;;;;;;;;;29.60;98.80;;;;;;5132689;27;20324;-64
2023/07/28 12:25:40;;;;;;;;;;;29.00;98.60;;;;;;5151288;27;19928;-64
2023/07/28 12:28:07;;;;;;;;;;;28.80;99.10;;;;;;5148883;27;20344;-63
2023/07/28 12:30:33;;;;;;;;;;;29.00;99.30;;;;;;5151608;27;19923;-64
2023/07/28 12:33:00;;;;;;;;;;;28.90;98.20;;;;;;5151518;27;19976;-64
2023/07/28 12:35:30;;;;;;;;;;;28.80;98.70;;;;;;5131221;27;19931;-63
2023/07/28 12:38:00;;;;;;;;;;;28.80;98.70;;;;;;5131170;27;19965;-63
2023/07/28 12:40:28;;;;;;;;;;;29.30;99.50;;;;;;5129838;27;19927;-64
2023/07/28 12:42:55;;;;;;;;;;;29.60;99.40;;;;;;5151327;27;19927;-64
2023/07/28 12:45:22;;;;;;;;;;;29.50;98.20;;;;;;5151429;27;19923;-63
2023/07/28 12:47:49;;;;;;;;;;;30.20;96.90;;;;;;5150599;27;19931;-63
2023/07/28 12:50:15;;;;;;;;;;;30.70;97.70;;;;;;5151122;27;19923;-64
2023/07/28 12:52:42;;;;;;;;;;;31.10;96.50;;;;;;5150733;27;20371;-64
2023/07/28 12:55:10;;;;;;;;;;;31.20;95.90;;;;;;5130209;27;19944;-63
2023/07/28 12:57:37;;;;;;;;;;;30.90;96.00;;;;;;5150613;27;20387;-63
2023/07/28 13:00:12;;;;;;;;;;;30.70;94.70;;;;;;5150884;27;19972;-63
2023/07/28 13:02:39;;;;;;;;;;;31.10;95.70;;;;;;5130320;27;19924;-64
2023/07/28 13:05:06;;;;;;;;;;;31.60;95.30;;;;;;5131895;27;19930;-64
2023/07/28 13:07:33;;;;;;;;;;;31.80;94.90;;;;;;5150566;27;20268;-64
2023/07/28 13:10:00;;;;;;;;;;;31.40;93.90;;;;;;5150155;27;19931;-64
2023/07/28 13:12:28;;;;;;;;;;;31.20;93.40;;;;;;5150674;27;19946;-64
2023/07/28 13:14:55;;;;;;;;;;;32.00;94.70;;;;;;5150715;27;19969;-64
2023/07/28 13:17:21;;;;;;;;;;;31.70;93.10;;;;;;5130708;27;19923;-64
2023/07/28 13:19:48;;;;;;;;;;;31.60;93.90;;;;;;5129765;27;19931;-64
2023/07/28 13:22:15;;;;;;;;;;;31.60;94.70;;;;;;5150808;27;19924;-64
2023/07/28 13:24:43;;;;;;;;;;;31.60;94.20;;;;;;5129212;27;19968;-64
2023/07/28 13:27:10;;;;;;;;;;;32.00;94.30;;;;;;5131174;27;20003;-64
2023/07/28 13:29:38;;;;;;;;;;;32.20;93.70;;;;;;5129449;27;19946;-64
2023/07/28 13:32:15;;;;;;;;;;;32.50;94.00;;;;;;5117416;27;19923;-64
2023/07/28 13:34:42;;;;;;;;;;;33.20;93.60;;;;;;5136523;27;19992;-64
2023/07/28 13:37:09;;;;;;;;;;;32.50;93.20;;;;;;5136051;27;19923;-64
2023/07/28 13:39:35;;;;;;;;;;;32.50;93.00;;;;;;5115651;27;19990;-64
2023/07/28 13:42:02;;;;;;;;;;;32.70;93.40;;;;;;5136559;27;20271;-63
2023/07/28 13:44:29;;;;;;;;;;;32.50;92.60;;;;;;5114834;27;19980;-65
2023/07/28 13:46:57;;;;;;;;;;;31.90;92.80;;;;;;5117018;27;19923;-63
2023/07/28 13:49:24;;;;;;;;;;;31.00;93.40;;;;;;5136177;27;19972;-63
2023/07/28 13:51:50;;;;;;;;;;;30.40;93.90;;;;;;5116484;27;19946;-63
2023/07/28 13:54:17;;;;;;;;;;;30.00;94.30;;;;;;5116143;28;20347;-64
2023/07/28 13:56:44;;;;;;;;;;;29.70;94.80;;;;;;5135811;27;19924;-65
2023/07/28 13:59:11;;;;;;;;;;;29.30;95.70;;;;;;5135268;27;19927;-65
2023/07/28 14:01:37;;;;;;;;;;;28.70;96.50;;;;;;5133648;27;19924;-64
2023/07/28 14:04:05;;;;;;;;;;;28.70;96.50;;;;;;5135960;27;19924;-64
2023/07/28 14:06:33;;;;;;;;;;;28.90;96.20;;;;;;5133274;27;19968;-63
2023/07/28 14:08:59;;;;;;;;;;;28.30;96.40;;;;;;5135707;27;19924;-64
2023/07/28 14:11:26;;;;;;;;;;;28.80;97.00;;;;;;5115146;27;19974;-64
2023/07/28 14:13:53;;;;;;;;;;;28.70;96.60;;;;;;5115625;27;19924;-64
2023/07/28 14:16:19;;;;;;;;;;;28.80;96.50;;;;;;5115045;27;19930;-64
2023/07/28 14:18:47;;;;;;;;;;;28.80;97.30;;;;;;5134616;27;20439;-63
2023/07/28 14:21:16;;;;;;;;;;;28.60;97.60;;;;;;5133369;27;19931;-64